Time;durP1;ratioP1;P1;durP2;ratioP2;P2;SDS_P1;SDS_P2;PMS_P1;PMS_P2;Temp;Humidity;BMP_temperature;BMP_pressure;BME280_temperature;BME280_humidity;BME280_pressure;Samples;Min_cycle;Max_cycle;Signal;HPM_P1;HPM_P2
2022/06/04 00:01:55;;;;;;;11.50;5.53;;;;;;;11.61;100.00;102256.16;4951713;28;20055;-79
2022/06/04 00:04:23;;;;;;;11.63;5.57;;;;;;;11.60;100.00;102251.72;4938272;28;20061;-78
2022/06/04 00:06:52;;;;;;;9.73;5.40;;;;;;;11.58;100.00;102256.09;4936304;28;20050;-78
2022/06/04 00:09:26;;;;;;;15.82;5.00;;;;;;;11.56;100.00;102257.81;4946876;28;20040;-78
2022/06/04 00:17:30;;;;;;;11.27;5.47;;;;;;;11.55;100.00;102263.06;4948773;28;20051;-79
2022/06/04 00:19:58;;;;;;;11.10;6.60;;;;;;;11.53;100.00;102263.03;4938311;28;20051;-79
2022/06/04 00:22:26;;;;;;;14.75;6.53;;;;;;;11.51;100.00;102264.72;4967098;28;20511;-79
2022/06/04 00:24:55;;;;;;;7.32;4.90;;;;;;;11.49;100.00;102272.63;4936348;28;20531;-78
2022/06/04 00:27:23;;;;;;;12.55;5.72;;;;;;;11.50;100.00;102268.25;4946861;28;20508;-78
2022/06/04 00:29:52;;;;;;;17.55;6.40;;;;;;;11.51;100.00;102260.38;4882834;28;20059;-78
2022/06/04 00:32:21;;;;;;;13.43;6.07;;;;;;;11.51;100.00;102259.44;4938128;28;20058;-78
2022/06/04 00:34:49;;;;;;;10.40;6.35;;;;;;;11.50;100.00;102260.31;4915913;28;20256;-79
2022/06/04 00:37:17;;;;;;;14.68;6.45;;;;;;;11.50;100.00;102247.13;4931179;29;20043;-78
2022/06/04 00:39:46;;;;;;;10.00;5.07;;;;;;;11.48;100.00;102254.13;4938121;28;20719;-78
2022/06/04 00:42:20;;;;;;;15.35;5.47;;;;;;;11.46;100.00;102255.84;4955112;28;20039;-78
2022/06/04 00:44:48;;;;;;;12.32;5.78;;;;;;;11.45;100.00;102256.69;4951573;28;20254;-79
2022/06/04 00:47:28;;;;;;;13.60;6.40;;;;;;;11.44;100.00;102263.72;4916559;28;20035;-79
2022/06/04 00:49:57;;;;;;;10.45;5.78;;;;;;;11.42;100.00;102251.34;4932276;28;20047;-79
2022/06/04 00:52:26;;;;;;;10.02;5.30;;;;;;;11.40;100.00;102248.69;4943155;28;20046;-78
2022/06/04 00:54:57;;;;;;;14.77;6.07;;;;;;;11.39;100.00;102246.00;4939700;28;20046;-79
2022/06/04 00:57:45;;;;;;;16.55;6.00;;;;;;;11.35;100.00;102230.97;4911229;28;20379;-78
2022/06/04 01:00:20;;;;;;;13.20;6.10;;;;;;;11.34;100.00;102248.50;4949695;28;20052;-76
2022/06/04 01:02:49;;;;;;;12.98;6.47;;;;;;;11.31;100.00;102238.78;4912038;28;20686;-77
2022/06/04 01:05:29;;;;;;;12.48;6.07;;;;;;;11.30;100.00;102244.94;4950721;28;20035;-75
2022/06/04 01:08:16;;;;;;;16.83;6.28;;;;;;;11.28;100.00;102238.72;4943846;28;20058;-76
2022/06/04 01:11:09;;;;;;;17.05;6.68;;;;;;;11.28;100.00;102237.84;4932564;28;20039;-75
2022/06/04 01:13:40;;;;;;;12.18;6.10;;;;;;;11.26;100.00;102247.47;4941248;28;20167;-76
2022/06/04 01:16:15;;;;;;;8.63;5.18;;;;;;;11.24;100.00;102250.06;4938924;28;20382;-75
2022/06/04 01:19:03;;;;;;;12.98;5.75;;;;;;;11.23;100.00;102248.28;4914032;28;20257;-75
2022/06/04 01:22:16;;;;;;;15.32;6.80;;;;;;;11.23;100.00;102248.28;4931356;28;20233;-76
2022/06/04 01:25:03;;;;;;;11.27;6.50;;;;;;;11.22;100.00;102245.63;4924216;28;20035;-76
2022/06/04 01:27:43;;;;;;;11.90;6.30;;;;;;;11.20;100.00;102237.66;4931300;28;20416;-76
2022/06/04 01:30:19;;;;;;;13.18;5.88;;;;;;;11.21;100.00;102243.81;4941632;28;20044;-76
2022/06/04 01:32:55;;;;;;;15.88;6.80;;;;;;;11.20;100.00;102242.06;4908696;28;20284;-75
2022/06/04 01:35:42;;;;;;;9.10;5.72;;;;;;;11.19;100.00;102246.44;4931989;28;20050;-75
2022/06/04 01:38:19;;;;;;;10.63;6.20;;;;;;;11.19;100.00;102245.53;4935419;28;20058;-76
2022/06/04 01:41:04;;;;;;;15.60;5.57;;;;;;;11.18;100.00;102236.75;4926887;28;20284;-76
2022/06/04 01:43:38;;;;;;;10.60;5.35;;;;;;;11.16;100.00;102238.44;4927549;28;20121;-76
2022/06/04 01:46:14;;;;;;;13.93;6.25;;;;;;;11.15;100.00;102239.28;4928843;29;20050;-77
2022/06/04 01:48:45;;;;;;;14.60;6.45;;;;;;;11.12;100.00;102234.84;4901315;28;20169;-77
2022/06/04 01:51:17;;;;;;;;;;;;;;;11.08;100.00;102233.00;4946102;28;20047;-76
2022/06/04 01:53:50;;;;;;;8.43;4.90;;;;;;;11.05;100.00;102232.91;4924404;28;19930;-75
2022/06/04 01:56:25;;;;;;;11.55;4.97;;;;;;;11.05;100.00;102232.03;4942286;28;20040;-77
2022/06/04 01:59:00;;;;;;;9.77;5.50;;;;;;;11.05;100.00;102234.66;4934221;28;20055;-77
2022/06/04 02:01:32;;;;;;;16.20;6.07;;;;;;;11.03;100.00;102234.63;4922963;28;20046;-76
2022/06/04 02:04:24;;;;;;;14.25;6.18;;;;;;;11.04;100.00;102230.22;4899800;28;20056;-77
2022/06/04 02:09:47;;;;;;;13.40;6.28;;;;;;;11.03;100.00;102237.28;4931633;28;20250;-76
2022/06/04 02:12:15;;;;;;;10.00;5.53;;;;;;;11.02;100.00;102227.59;4905496;29;20059;-76
2022/06/04 02:14:46;;;;;;;11.35;6.00;;;;;;;11.01;100.00;102232.81;4937478;28;20043;-76
2022/06/04 02:17:21;;;;;;;15.30;5.15;;;;;;;11.00;100.00;102245.13;4924384;28;20049;-76
2022/06/04 02:19:50;;;;;;;7.57;5.22;;;;;;;10.99;100.00;102245.09;4912839;28;20264;-76
2022/06/04 02:22:18;;;;;;;10.63;4.72;;;;;;;10.99;100.00;102248.59;4944664;28;20511;-77
2022/06/04 02:24:49;;;;;;;9.60;5.68;;;;;;;10.97;100.00;102249.44;4911819;29;20267;-76
2022/06/04 02:27:17;;;;;;;6.30;4.75;;;;;;;10.93;100.00;102257.25;4928050;29;20047;-76
2022/06/04 02:29:46;;;;;;;11.77;5.10;;;;;;;10.93;100.00;102275.72;4935438;28;20551;-76
2022/06/04 02:32:25;;;;;;;8.30;5.78;;;;;;;10.89;100.00;102281.78;4941288;28;20043;-77
2022/06/04 02:35:02;;;;;;;10.73;4.97;;;;;;;10.88;100.00;102282.63;4927492;28;20068;-75
2022/06/04 02:37:40;;;;;;;8.15;5.07;;;;;;;10.89;100.00;102273.00;4928489;29;20047;-75
2022/06/04 02:40:14;;;;;;;9.40;5.80;;;;;;;10.87;100.00;102285.25;4917162;28;20055;-76
2022/06/04 02:42:48;;;;;;;8.15;5.00;;;;;;;10.86;100.00;102289.59;4926332;28;20189;-76
2022/06/04 02:45:24;;;;;;;7.35;5.68;;;;;;;10.87;100.00;102285.25;4937647;28;20056;-76
2022/06/04 02:48:22;;;;;;;9.70;5.25;;;;;;;10.85;100.00;102290.47;4941335;28;20051;-76
2022/06/04 02:50:53;;;;;;;6.93;4.10;;;;;;;10.84;100.00;102293.94;4911591;28;20333;-76
2022/06/04 02:53:24;;;;;;;7.47;4.90;;;;;;;10.85;100.00;102290.47;4933359;28;20055;-76
2022/06/04 02:55:59;;;;;;;9.65;4.40;;;;;;;10.84;100.00;102295.72;4938415;28;20043;-76
2022/06/04 02:58:29;;;;;;;11.07;4.32;;;;;;;10.83;100.00;102294.81;4944409;28;20051;-76
2022/06/04 03:01:00;;;;;;;8.88;4.28;;;;;;;10.82;100.00;102287.75;4937889;28;20039;-76
2022/06/04 03:03:29;;;;;;;7.05;4.28;;;;;;;10.80;100.00;102291.22;4940923;28;20062;-76
2022/06/04 03:06:04;;;;;;;7.25;4.40;;;;;;;10.79;100.00;102289.41;4897719;29;20043;-76
2022/06/04 03:08:38;;;;;;;5.93;4.00;;;;;;;10.78;100.00;102285.91;4942868;28;20758;-77
2022/06/04 03:11:06;;;;;;;6.90;4.22;;;;;;;10.77;100.00;102284.09;4918440;29;20488;-76
2022/06/04 03:13:34;;;;;;;7.40;4.43;;;;;;;10.77;100.00;102289.38;4940172;28;20048;-77
2022/06/04 03:16:03;;;;;;;8.73;4.00;;;;;;;10.77;100.00;102294.66;4939563;28;20046;-77
2022/06/04 03:18:32;;;;;;;7.80;4.40;;;;;;;10.78;100.00;102292.94;4912439;28;20244;-76
2022/06/04 03:21:00;;;;;;;6.50;3.80;;;;;;;10.79;100.00;102297.31;4915364;28;20393;-76
2022/06/04 03:23:28;;;;;;;7.90;4.13;;;;;;;10.79;100.00;102298.22;4939278;28;20067;-76
2022/06/04 03:25:57;;;;;;;5.78;3.97;;;;;;;10.80;100.00;102293.84;4941472;28;20040;-76
2022/06/04 03:28:26;;;;;;;9.27;4.25;;;;;;;10.79;100.00;102305.25;4948321;28;20046;-77
2022/06/04 03:30:54;;;;;;;6.63;4.63;;;;;;;10.80;100.00;102299.13;4924596;29;20039;-76
2022/06/04 03:33:23;;;;;;;8.57;4.18;;;;;;;10.79;100.00;102292.94;4940061;28;20610;-77
2022/06/04 03:35:51;;;;;;;4.75;3.80;;;;;;;10.79;100.00;102285.03;4942478;28;20047;-77
2022/06/04 03:38:20;;;;;;;12.80;4.03;;;;;;;10.80;100.00;102278.91;4901697;28;20058;-76
2022/06/04 03:40:48;;;;;;;8.45;4.22;;;;;;;10.81;100.00;102272.81;4917403;29;20440;-76
2022/06/04 03:43:17;;;;;;;6.20;4.00;;;;;;;10.81;100.00;102259.63;4932089;28;20043;-76
2022/06/04 03:45:46;;;;;;;4.60;4.15;;;;;;;10.80;100.00;102271.00;4929599;28;21097;-76
2022/06/04 03:48:14;;;;;;;4.97;3.40;;;;;;;10.80;100.00;102268.38;4944930;28;20501;-76
2022/06/04 03:50:42;;;;;;;8.55;4.35;;;;;;;10.80;100.00;102273.63;4926752;29;20710;-76
2022/06/04 03:53:11;;;;;;;5.55;3.92;;;;;;;10.81;100.00;102262.25;4904313;28;20052;-76
2022/06/04 03:55:39;;;;;;;4.72;3.15;;;;;;;10.82;100.00;102252.59;4939995;28;20542;-75
2022/06/04 03:58:08;;;;;;;3.97;3.53;;;;;;;10.83;100.00;102242.09;4927496;28;20039;-75
2022/06/04 04:00:39;;;;;;;7.85;4.22;;;;;;;10.85;100.00;102255.28;4909181;29;20046;-76
2022/06/04 04:03:17;;;;;;;5.75;4.00;;;;;;;10.87;100.00;102250.97;4937894;28;20377;-77
2022/06/04 04:05:51;;;;;;;5.30;3.30;;;;;;;10.89;100.00;102252.78;4945375;28;20070;-75
2022/06/04 04:08:23;;;;;;;5.18;4.13;;;;;;;10.92;100.00;102250.19;4913650;28;20055;-76
2022/06/04 04:10:52;;;;;;;4.57;3.63;;;;;;;10.95;100.00;102245.88;4942748;28;20412;-76
2022/06/04 04:13:20;;;;;;;5.65;4.00;;;;;;;10.96;100.00;102250.28;4922468;28;20051;-76
2022/06/04 04:15:48;;;;;;;9.43;3.90;;;;;;;10.96;100.00;102237.97;4941371;28;20055;-76
2022/06/04 04:18:17;;;;;;;4.15;3.75;;;;;;;10.99;100.00;102239.81;4938565;28;20035;-76
2022/06/04 04:20:47;;;;;;;6.18;4.28;;;;;;;11.01;100.00;102233.72;4938144;28;20252;-76
2022/06/04 04:23:16;;;;;;;7.78;4.45;;;;;;;11.04;100.00;102238.16;4904557;28;20062;-75
2022/06/04 04:25:44;;;;;;;5.80;4.25;;;;;;;11.05;100.00;102247.84;4949438;28;20277;-76
2022/06/04 04:28:13;;;;;;;4.43;3.90;;;;;;;11.08;100.00;102250.59;4926884;28;20039;-77
2022/06/04 04:30:41;;;;;;;4.97;4.22;;;;;;;11.09;100.00;102253.22;4931414;28;20047;-76
2022/06/04 04:33:10;;;;;;;7.10;5.05;;;;;;;11.13;100.00;102256.84;4937824;28;20047;-77
2022/06/04 04:35:38;;;;;;;4.72;4.05;;;;;;;11.17;100.00;102256.09;4919941;29;20425;-77
2022/06/04 04:38:07;;;;;;;7.05;4.72;;;;;;;11.22;100.00;102254.41;4950818;28;20047;-76
2022/06/04 04:40:35;;;;;;;7.63;5.03;;;;;;;11.25;100.00;102270.34;4907871;28;20055;-76
2022/06/04 04:43:04;;;;;;;7.15;4.72;;;;;;;11.30;100.00;102275.69;4951334;28;20050;-76
2022/06/04 04:45:33;;;;;;;4.82;4.10;;;;;;;11.32;100.00;102274.91;4967193;28;20182;-76
2022/06/04 04:48:01;;;;;;;6.32;4.18;;;;;;;11.38;100.00;102273.22;4948248;28;20049;-76
2022/06/04 04:50:36;;;;;;;8.25;5.05;;;;;;;11.41;100.00;102274.19;4935301;28;20043;-76
2022/06/04 04:53:09;;;;;;;12.80;4.78;;;;;;;11.47;100.00;102281.38;4937188;28;20389;-76
2022/06/04 04:55:38;;;;;;;6.03;4.50;;;;;;;11.50;100.00;102277.03;4906552;28;20244;-76
2022/06/04 04:58:07;;;;;;;7.17;5.03;;;;;;;11.57;100.00;102277.16;4934468;28;20042;-76
2022/06/04 05:00:35;;;;;;;8.48;4.93;;;;;;;11.65;100.00;102273.84;4949056;28;20278;-76
2022/06/04 05:03:04;;;;;;;6.85;4.47;;;;;;;11.87;100.00;102276.94;4954448;28;20069;-75
2022/06/04 05:05:32;;;;;;;6.90;4.90;;;;;;;12.65;100.00;102278.47;4945977;28;20290;-75
2022/06/04 05:08:01;;;;;;;7.00;4.28;;;;;;;13.68;100.00;102267.69;4926526;28;20038;-75
2022/06/04 05:10:29;;;;;;;6.00;3.95;;;;;;;14.67;100.00;102275.00;4938530;28;20400;-76
2022/06/04 05:12:58;;;;;;;6.47;4.00;;;;;;;15.66;100.00;102282.78;4946359;28;20054;-75
2022/06/04 05:15:26;;;;;;;6.40;3.78;;;;;;;16.51;100.00;102283.09;4921026;28;20508;-75
2022/06/04 05:17:55;;;;;;;3.50;3.20;;;;;;;17.11;100.00;102276.03;4924891;28;20492;-75
2022/06/04 05:20:23;;;;;;;4.22;2.90;;;;;;;17.58;100.00;102282.16;4960322;28;20046;-76
2022/06/04 05:22:52;;;;;;;3.50;2.85;;;;;;;18.09;100.00;102284.59;4957721;28;20058;-76
2022/06/04 05:25:20;;;;;;;4.40;3.33;;;;;;;18.62;100.00;102285.16;4918019;28;20058;-77
2022/06/04 05:27:49;;;;;;;6.43;3.38;;;;;;;18.69;99.96;102290.47;4908020;28;20532;-75
2022/06/04 05:30:17;;;;;;;4.47;2.80;;;;;;;18.40;98.08;102300.47;4927761;28;20038;-76
2022/06/04 05:32:46;;;;;;;5.15;3.30;;;;;;;18.12;96.36;102306.81;4965258;28;20074;-75
2022/06/04 05:35:14;;;;;;;3.30;2.85;;;;;;;18.05;95.69;102293.53;4965456;28;20047;-76
2022/06/04 05:37:42;;;;;;;4.03;3.15;;;;;;;18.20;95.24;102297.91;4930455;28;20162;-76
2022/06/04 05:40:11;;;;;;;4.07;3.38;;;;;;;18.79;93.44;102287.69;4948143;28;20063;-76
2022/06/04 05:42:42;;;;;;;5.38;2.80;;;;;;;19.40;92.43;102287.19;4937000;28;20058;-76
2022/06/04 05:45:10;;;;;;;5.03;3.05;;;;;;;19.95;89.35;102293.69;4935618;28;20059;-76
2022/06/04 05:47:39;;;;;;;4.93;2.80;;;;;;;20.29;85.56;102295.03;4962109;28;20050;-76
2022/06/04 05:50:08;;;;;;;5.40;2.83;;;;;;;20.36;83.86;102299.38;4949797;28;20046;-76
2022/06/04 05:52:36;;;;;;;3.50;2.60;;;;;;;20.13;81.84;102302.38;4922812;28;20253;-76
2022/06/04 05:55:05;;;;;;;5.07;2.83;;;;;;;19.61;80.91;102309.22;4936707;28;20053;-75
2022/06/04 05:57:33;;;;;;;3.85;3.10;;;;;;;19.19;80.83;102309.66;4882119;28;20158;-75
2022/06/04 06:00:07;;;;;;;5.75;3.55;;;;;;;18.89;80.46;102316.16;4929275;28;20048;-75
2022/06/04 06:02:39;;;;;;;4.95;2.85;;;;;;;18.77;80.03;102308.19;4952062;28;20422;-76
2022/06/04 06:05:08;;;;;;;3.72;2.60;;;;;;;18.63;80.18;102306.53;4948702;28;20119;-75
2022/06/04 06:07:36;;;;;;;4.47;3.22;;;;;;;18.42;80.30;102304.00;4936420;28;20065;-77
2022/06/04 06:10:05;;;;;;;3.22;2.40;;;;;;;18.02;80.29;102294.44;4935647;28;20054;-76
2022/06/04 06:12:33;;;;;;;5.85;3.10;;;;;;;17.72;81.28;102282.09;4909056;28;20087;-77
2022/06/04 06:15:02;;;;;;;3.97;2.92;;;;;;;17.49;82.52;102290.16;4953001;28;20042;-76
2022/06/04 06:17:30;;;;;;;4.68;3.10;;;;;;;17.67;82.99;102299.88;4921749;28;20044;-77
2022/06/04 06:19:59;;;;;;;5.00;2.85;;;;;;;17.92;82.88;102309.59;4917412;29;20039;-75
2022/06/04 06:22:27;;;;;;;3.42;2.38;;;;;;;18.03;82.71;102300.66;4941385;28;20035;-75
2022/06/04 06:24:56;;;;;;;6.13;3.58;;;;;;;18.02;81.39;102304.22;4940323;28;20074;-75
2022/06/04 06:27:28;;;;;;;4.53;2.80;;;;;;;18.04;81.42;102315.78;4899945;28;20039;-75
2022/06/04 06:29:57;;;;;;;4.07;2.22;;;;;;;18.04;80.42;102329.13;4939014;28;20044;-75
2022/06/04 06:32:26;;;;;;;3.00;2.72;;;;;;;18.03;80.22;102328.19;4921092;28;20078;-76
2022/06/04 06:34:55;;;;;;;4.03;3.00;;;;;;;17.98;80.00;102326.47;4945001;28;20059;-76
2022/06/04 06:37:23;;;;;;;5.03;3.35;;;;;;;17.88;80.09;102328.28;4927945;29;20048;-75
2022/06/04 06:39:53;;;;;;;5.63;3.20;;;;;;;17.75;80.82;102327.41;4941417;28;20066;-76
2022/06/04 06:42:22;;;;;;;2.97;2.78;;;;;;;17.67;81.54;102326.53;4931314;29;20035;-76
2022/06/04 06:44:58;;;;;;;3.55;3.25;;;;;;;17.58;81.92;102323.88;4919457;28;20042;-76
2022/06/04 06:47:26;;;;;;;6.30;3.30;;;;;;;17.49;82.49;102327.47;4920143;28;20047;-76
2022/06/04 06:49:55;;;;;;;3.65;3.30;;;;;;;17.35;82.42;102319.47;4950233;28;20043;-75
2022/06/04 06:52:23;;;;;;;4.93;3.47;;;;;;;17.19;83.70;102323.97;4930999;28;20051;-76
2022/06/04 06:54:52;;;;;;;4.85;3.60;;;;;;;17.11;84.34;102329.28;4927408;28;20048;-76
2022/06/04 06:57:20;;;;;;;6.40;3.40;;;;;;;16.95;84.08;102333.72;4941175;28;20050;-76
2022/06/04 06:59:49;;;;;;;3.30;3.00;;;;;;;16.99;85.33;102329.28;4905210;28;20177;-76
2022/06/04 07:02:17;;;;;;;5.07;3.60;;;;;;;17.11;85.67;102341.72;4943617;28;20051;-76
2022/06/04 07:04:46;;;;;;;5.10;2.83;;;;;;;17.17;85.38;102335.50;4921956;29;20257;-76
2022/06/04 07:07:14;;;;;;;5.20;3.22;;;;;;;17.21;86.52;102330.16;4944540;28;20044;-76
2022/06/04 07:09:44;;;;;;;5.50;3.28;;;;;;;17.20;85.92;102330.16;4936143;28;20070;-75
2022/06/04 07:12:15;;;;;;;5.22;2.70;;;;;;;17.07;85.60;102343.50;4928708;28;20047;-76
2022/06/04 07:14:43;;;;;;;5.10;3.00;;;;;;;16.99;85.89;102344.38;4901095;29;20039;-76
2022/06/04 07:17:11;;;;;;;5.60;3.05;;;;;;;16.90;85.43;102348.81;4927102;28;20135;-76
2022/06/04 07:19:40;;;;;;;4.13;2.90;;;;;;;16.80;86.82;102352.31;4907845;29;20059;-76
2022/06/04 07:22:08;;;;;;;5.57;3.55;;;;;;;16.75;86.71;102357.63;4925373;29;20055;-76
2022/06/04 07:24:37;;;;;;;4.20;3.10;;;;;;;16.70;86.70;102358.50;4909388;28;20027;-75
2022/06/04 07:27:07;;;;;;;2.90;2.70;;;;;;;16.81;86.94;102345.22;4913469;29;20047;-75
2022/06/04 07:29:36;;;;;;;3.85;2.92;;;;;;;16.87;86.36;102342.59;4928739;28;20056;-75
2022/06/04 07:32:05;;;;;;;3.80;3.17;;;;;;;16.87;87.31;102339.94;4878591;29;20125;-75
2022/06/04 07:34:34;;;;;;;3.58;3.10;;;;;;;16.93;86.88;102334.59;4928786;28;20051;-76
2022/06/04 07:37:02;;;;;;;3.72;2.78;;;;;;;17.05;86.74;102339.97;4932813;28;20276;-76
2022/06/04 07:39:31;;;;;;;3.75;3.00;;;;;;;17.07;86.07;102346.16;4934298;28;20043;-76
2022/06/04 07:41:59;;;;;;;3.47;2.75;;;;;;;16.94;84.73;102337.28;4897843;28;20043;-76
2022/06/04 07:44:28;;;;;;;6.03;2.80;;;;;;;16.85;85.42;102344.38;4919346;29;20042;-76
2022/06/04 07:46:56;;;;;;;4.47;3.10;;;;;;;16.85;85.92;102341.72;4907041;28;20051;-76
2022/06/04 07:49:25;;;;;;;4.88;3.03;;;;;;;16.89;86.03;102348.81;4932507;28;20059;-76
2022/06/04 07:51:54;;;;;;;3.80;2.85;;;;;;;16.93;86.66;102345.25;4923835;28;20051;-76
2022/06/04 07:54:23;;;;;;;4.70;2.93;;;;;;;16.94;86.58;102344.38;4938624;28;20046;-76
2022/06/04 07:56:54;;;;;;;4.72;3.22;;;;;;;16.87;86.25;102340.81;4927899;28;20047;-76
2022/06/04 07:59:23;;;;;;;6.43;3.00;;;;;;;16.87;86.48;102338.16;4936685;28;20048;-76
2022/06/04 08:01:52;;;;;;;4.13;3.20;;;;;;;16.88;88.51;102350.59;4889870;28;20503;-76
2022/06/04 08:04:22;;;;;;;4.80;3.05;;;;;;;16.92;87.48;102343.50;4938025;28;20148;-76
2022/06/04 08:06:50;;;;;;;8.23;3.42;;;;;;;16.94;87.83;102349.72;4923511;28;20189;-76
2022/06/04 08:09:19;;;;;;;3.05;2.60;;;;;;;16.85;86.78;102344.38;4901098;28;20244;-78
2022/06/04 08:11:47;;;;;;;3.72;2.90;;;;;;;16.80;87.48;102349.66;4923989;28;20058;-77
2022/06/04 08:14:21;;;;;;;3.50;2.95;;;;;;;16.82;88.16;102347.91;4902658;29;20245;-76
2022/06/04 08:17:10;;;;;;;5.65;2.83;;;;;;;16.81;86.83;102345.22;4936603;28;20040;-78
2022/06/04 08:19:40;;;;;;;7.93;3.00;;;;;;;16.66;87.07;102346.09;4936871;28;20073;-78
2022/06/04 08:22:18;;;;;;;3.42;3.13;;;;;;;16.65;88.56;102349.63;4939625;28;20683;-78
2022/06/04 08:24:48;;;;;;;5.20;3.10;;;;;;;16.70;88.94;102345.22;4916116;29;20047;-78
2022/06/04 08:27:17;;;;;;;4.57;2.90;;;;;;;16.77;88.67;102350.53;4920629;28;20090;-78
2022/06/04 08:29:47;;;;;;;3.50;2.80;;;;;;;16.83;88.96;102357.69;4925837;28;20046;-77
2022/06/04 08:32:26;;;;;;;3.53;3.05;;;;;;;16.87;88.75;102354.13;4934031;28;20255;-78
2022/06/04 08:34:54;;;;;;;6.03;3.10;;;;;;;16.87;88.13;102359.47;4885479;29;20130;-76
2022/06/04 08:37:22;;;;;;;4.25;3.00;;;;;;;16.91;88.69;102358.56;4938854;28;20047;-77
2022/06/04 08:39:51;;;;;;;5.30;2.83;;;;;;;16.99;89.06;102365.69;4903976;28;20162;-78
2022/06/04 08:42:36;;;;;;;3.05;2.78;;;;;;;17.02;88.56;102371.91;4937448;28;20056;-77
2022/06/04 08:45:08;;;;;;;5.03;3.03;;;;;;;16.98;88.25;102370.13;4929037;28;20420;-77
2022/06/04 08:47:42;;;;;;;3.80;2.95;;;;;;;16.90;88.14;102370.13;4931462;28;20041;-77
2022/06/04 08:50:21;;;;;;;5.13;2.90;;;;;;;16.84;87.70;102377.19;4897870;28;20074;-79
2022/06/04 08:52:58;;;;;;;4.43;2.75;;;;;;;16.86;87.90;102370.09;4941201;28;20078;-78
2022/06/04 08:58:45;;;;;;;5.90;3.35;;;;;;;16.85;87.74;102369.22;4936485;28;20047;-77
2022/06/04 09:01:21;;;;;;;5.78;3.22;;;;;;;16.79;87.54;102366.53;4917000;29;20048;-77
2022/06/04 09:03:50;;;;;;;6.35;3.20;;;;;;;16.78;88.30;102364.72;4953706;28;20323;-76
2022/06/04 09:06:49;;;;;;;3.28;2.97;;;;;;;16.86;89.48;102355.03;4909599;28;20058;-80
2022/06/04 09:09:37;;;;;;;6.72;2.97;;;;;;;16.93;88.12;102346.13;4939537;29;20044;-76
2022/06/04 09:12:14;;;;;;;4.55;2.50;;;;;;;17.00;88.46;102341.72;4928194;28;20055;-76
2022/06/04 09:14:49;;;;;;;4.68;3.00;;;;;;;17.06;88.34;102340.84;4932009;28;20057;-76
2022/06/04 09:17:28;;;;;;;2.65;2.40;;;;;;;17.06;86.92;102344.38;4933157;28;20043;-76
2022/06/04 09:19:58;;;;;;;6.38;2.47;;;;;;;17.02;87.78;102344.38;4924118;28;20070;-76
2022/06/04 09:22:40;;;;;;;34.13;5.50;;;;;;;17.10;89.76;102345.25;4886780;28;20047;-76
2022/06/04 09:25:13;;;;;;;3.70;2.40;;;;;;;17.18;88.98;102340.81;4938604;28;20051;-76
2022/06/04 09:28:13;;;;;;;10.32;2.95;;;;;;;17.20;89.35;102344.41;4925882;28;20272;-76
2022/06/04 09:30:54;;;;;;;3.47;3.17;;;;;;;17.18;88.85;102347.94;4914493;28;20591;-78
2022/06/04 09:33:39;;;;;;;5.35;3.42;;;;;;;17.09;90.58;102363.03;4924934;28;20048;-76
2022/06/04 09:36:15;;;;;;;3.38;2.60;;;;;;;17.07;89.67;102351.50;4902013;28;20039;-75
2022/06/04 09:39:19;;;;;;;5.18;3.00;;;;;;;16.99;89.85;102368.34;4931955;28;20058;-75
2022/06/04 09:42:05;;;;;;;5.85;2.95;;;;;;;16.83;90.63;102363.00;4922946;28;20047;-81
2022/06/04 09:44:50;;;;;;;7.90;3.08;;;;;;;16.83;92.02;102354.13;4938227;28;20039;-84
2022/06/04 09:47:33;;;;;;;7.85;2.80;;;;;;;16.83;91.22;102356.81;4931303;28;20066;-81
2022/06/04 09:50:21;;;;;;;6.75;2.72;;;;;;;16.90;91.67;102361.22;4921523;29;20043;-75
2022/06/04 09:53:27;;;;;;;3.42;2.80;;;;;;;17.03;92.09;102359.47;4901271;28;20047;-76
2022/06/04 09:56:13;;;;;;;3.65;2.97;;;;;;;17.06;90.48;102352.38;4940863;28;20055;-76
2022/06/04 09:58:47;;;;;;;2.58;2.38;;;;;;;17.02;89.75;102350.59;4931066;28;20050;-76
2022/06/04 10:01:15;;;;;;;3.67;3.03;;;;;;;17.00;90.56;102352.38;4919134;29;20222;-76
2022/06/04 10:03:56;;;;;;;4.20;3.22;;;;;;;17.06;90.40;102339.03;4921333;28;20055;-76
2022/06/04 10:06:26;;;;;;;7.03;3.00;;;;;;;17.11;89.60;102349.72;4910105;28;26080;-76
2022/06/04 10:11:50;;;;;;;4.45;2.80;;;;;;;17.13;88.33;102359.47;4931459;28;20040;-76
2022/06/04 10:14:39;;;;;;;4.70;2.90;;;;;;;17.04;88.79;102348.81;4929124;28;20047;-76
2022/06/04 10:17:19;;;;;;;6.05;2.67;;;;;;;17.00;90.14;102357.69;4926608;28;20040;-76
2022/06/04 10:19:52;;;;;;;4.03;2.90;;;;;;;17.04;90.96;102362.13;4923277;28;20534;-76
2022/06/04 10:22:21;;;;;;;5.00;2.80;;;;;;;17.18;91.93;102355.91;4880564;28;20094;-76
2022/06/04 10:24:55;;;;;;;3.28;2.70;;;;;;;17.22;90.82;102352.34;4925689;29;20044;-76
2022/06/04 10:27:45;;;;;;;4.25;3.03;;;;;;;17.13;89.24;102348.81;4953053;28;20031;-76
2022/06/04 10:30:24;;;;;;;3.40;3.10;;;;;;;17.09;89.91;102360.38;4925958;28;20387;-75
2022/06/04 10:32:53;;;;;;;6.68;3.05;;;;;;;16.94;91.47;102363.91;4913525;29;20496;-75
2022/06/04 10:35:23;;;;;;;3.75;3.30;;;;;;;16.80;91.86;102370.06;4930941;28;20047;-83
2022/06/04 10:37:58;;;;;;;8.30;3.20;;;;;;;16.78;92.66;102370.06;4904745;28;20051;-83
2022/06/04 10:40:44;;;;;;;7.53;3.38;;;;;;;16.82;92.91;102374.53;4949921;28;20456;-83
2022/06/04 10:43:45;;;;;;;3.72;3.30;;;;;;;16.83;93.29;102373.66;4938766;28;20714;-83
2022/06/04 10:46:32;;;;;;;5.93;3.08;;;;;;;16.82;92.30;102379.84;4941731;28;20520;-83
2022/06/04 10:49:30;;;;;;;6.88;3.20;;;;;;;16.83;94.00;102375.44;4939337;28;20044;-82
2022/06/04 10:52:25;;;;;;;6.70;3.67;;;;;;;17.11;93.76;102379.00;4933039;28;20139;-83
2022/06/04 10:55:20;;;;;;;5.43;3.40;;;;;;;17.33;91.84;102387.88;4935502;28;20047;-84
2022/06/04 10:58:08;;;;;;;3.63;2.97;;;;;;;17.44;90.65;102383.44;4951904;28;20059;-82
2022/06/04 11:00:54;;;;;;;6.60;3.00;;;;;;;17.32;87.97;102397.66;4944355;28;20043;-81
2022/06/04 11:03:52;;;;;;;7.50;3.38;;;;;;;17.00;89.76;102396.75;4929345;28;20230;-75
2022/06/04 11:06:42;;;;;;;5.10;3.00;;;;;;;17.06;91.59;102389.66;4955768;28;20271;-75
2022/06/04 11:09:16;;;;;;;5.68;2.78;;;;;;;17.14;91.03;102393.22;4917009;28;20523;-76
2022/06/04 11:11:54;;;;;;;4.50;2.97;;;;;;;17.16;89.12;102390.53;4948313;28;20528;-75
2022/06/04 11:14:44;;;;;;;5.25;3.17;;;;;;;17.13;90.83;102394.09;4926715;29;20333;-75
2022/06/04 11:17:24;;;;;;;5.40;2.85;;;;;;;17.26;90.04;102396.78;4930801;28;20039;-75
2022/06/04 11:20:05;;;;;;;4.82;3.20;;;;;;;17.26;89.93;102397.66;4929329;29;20055;-75
2022/06/04 11:22:37;;;;;;;5.57;3.10;;;;;;;17.21;89.60;102394.09;4940674;28;20059;-75
2022/06/04 11:25:24;;;;;;;4.43;3.03;;;;;;;17.09;89.96;102397.66;4917669;28;20054;-75
2022/06/04 11:27:59;;;;;;;5.75;3.22;;;;;;;16.95;90.20;102396.75;4969642;28;20035;-76
2022/06/04 11:30:58;;;;;;;4.20;3.15;;;;;;;16.74;91.01;102400.22;4926009;28;20348;-76
2022/06/04 11:34:07;;;;;;;4.60;3.25;;;;;;;16.68;92.14;102386.91;4927762;28;20286;-76
2022/06/04 11:36:50;;;;;;;5.43;3.33;;;;;;;16.65;92.90;102401.06;4938982;28;20058;-76
2022/06/04 11:39:37;;;;;;;9.13;3.80;;;;;;;16.69;92.35;102402.88;4955458;28;20673;-76
2022/06/04 11:42:31;;;;;;;7.95;3.28;;;;;;;16.68;91.75;102410.84;4915711;28;20403;-76
2022/06/04 11:45:15;;;;;;;6.05;3.30;;;;;;;16.53;92.24;102399.28;4950781;28;20062;-76
2022/06/04 11:47:48;;;;;;;8.05;3.75;;;;;;;16.42;92.90;102409.00;4939542;28;20058;-76
2022/06/04 11:50:23;;;;;;;7.22;3.10;;;;;;;16.25;93.69;102387.63;4924782;28;20284;-76
2022/06/04 11:53:30;;;;;;;5.63;2.92;;;;;;;16.17;93.69;102397.38;4931359;28;20050;-76
2022/06/04 11:56:33;;;;;;;7.45;3.35;;;;;;;16.23;93.74;102388.53;4944424;28;20031;-76
2022/06/04 11:59:12;;;;;;;9.40;3.15;;;;;;;16.46;93.75;102381.50;4919135;28;20062;-76
2022/06/04 12:02:04;;;;;;;10.20;3.72;;;;;;;16.70;93.53;102390.47;4952960;28;20416;-75
2022/06/04 12:04:43;;;;;;;5.97;3.33;;;;;;;16.99;92.56;102386.97;4951027;28;20682;-75
2022/06/04 12:07:18;;;;;;;4.70;3.08;;;;;;;17.05;90.86;102387.88;4943298;28;20066;-75